createdAt,value
2023-03-12T00:01:22.945Z,77.56
2023-03-12T00:03:54.360Z,77.85
2023-03-12T00:06:22.605Z,77.74
2023-03-12T00:09:02.209Z,77.72
2023-03-12T00:11:32.120Z,78.06
2023-03-12T00:14:01.036Z,78.29
2023-03-12T00:16:31.795Z,78.70
2023-03-12T00:19:08.231Z,78.82
2023-03-12T00:21:55.657Z,78.98
2023-03-12T00:24:25.885Z,79.39
2023-03-12T00:26:55.829Z,79.33
2023-03-12T00:29:23.340Z,79.54
2023-03-12T00:31:51.846Z,79.73
2023-03-12T00:34:19.204Z,79.94
2023-03-12T00:36:46.490Z,80.00
2023-03-12T00:39:13.785Z,80.16
2023-03-12T00:41:41.097Z,80.41
2023-03-12T00:44:08.565Z,80.36
2023-03-12T00:46:35.744Z,80.62
2023-03-12T00:49:02.956Z,80.58
2023-03-12T00:51:50.449Z,80.57
2023-03-12T00:54:17.743Z,81.06
2023-03-12T00:56:46.850Z,81.02
2023-03-12T00:59:14.096Z,81.39
2023-03-12T01:01:42.432Z,81.05
2023-03-12T01:04:30.573Z,81.26
2023-03-12T01:07:18.209Z,81.61
2023-03-12T01:09:45.317Z,81.59
2023-03-12T01:12:12.677Z,81.71
2023-03-12T01:15:00.278Z,81.50
2023-03-12T01:17:27.680Z,81.67
2023-03-12T01:19:57.324Z,81.76
2023-03-12T01:22:45.395Z,81.64
2023-03-12T01:25:24.084Z,81.59
2023-03-12T01:27:54.217Z,81.68
2023-03-12T01:30:25.032Z,81.61
2023-03-12T01:32:55.726Z,81.56
2023-03-12T01:35:26.911Z,81.58
2023-03-12T01:37:56.088Z,81.59
2023-03-12T01:40:29.139Z,81.46
2023-03-12T01:42:58.797Z,81.66
2023-03-12T01:46:00.224Z,81.24
2023-03-12T01:48:29.190Z,81.45
2023-03-12T01:51:19.110Z,81.36
2023-03-12T01:53:52.386Z,81.38
2023-03-12T01:56:33.563Z,81.39
2023-03-12T01:59:24.571Z,81.39
2023-03-12T02:02:03.365Z,81.21
2023-03-12T02:04:32.486Z,80.98
2023-03-12T02:07:05.292Z,81.15
2023-03-12T02:09:37.665Z,81.03
2023-03-12T02:12:06.101Z,81.04
2023-03-12T02:14:53.729Z,80.97
2023-03-12T02:17:42.256Z,80.93
2023-03-12T02:20:18.428Z,80.93
2023-03-12T02:23:07.176Z,80.87
2023-03-12T02:25:40.993Z,80.87
2023-03-12T02:28:31.050Z,80.74
2023-03-12T02:31:23.306Z,80.74
2023-03-12T02:33:56.050Z,80.72
2023-03-12T02:36:43.617Z,80.86
2023-03-12T02:39:31.468Z,80.94
2023-03-12T02:42:10.283Z,80.85
2023-03-12T02:44:47.650Z,80.79
2023-03-12T02:47:22.617Z,80.57
2023-03-12T02:50:00.362Z,80.69
2023-03-12T02:52:38.457Z,80.71
2023-03-12T02:55:11.200Z,80.70
2023-03-12T02:57:58.719Z,80.81
2023-03-12T03:00:46.364Z,80.83
2023-03-12T03:03:26.660Z,80.77
2023-03-12T03:05:54.233Z,80.79
2023-03-12T03:08:42.315Z,80.87
2023-03-12T03:11:12.950Z,80.77
2023-03-12T03:13:53.940Z,80.84
2023-03-12T03:16:31.646Z,80.87
2023-03-12T03:18:59.580Z,80.87
2023-03-12T03:21:46.991Z,80.98
2023-03-12T03:24:27.444Z,80.95
2023-03-12T03:27:15.187Z,80.78
2023-03-12T03:29:46.600Z,80.69
2023-03-12T03:32:22.794Z,80.61
2023-03-12T03:34:52.867Z,80.58
2023-03-12T03:37:40.422Z,80.51
2023-03-12T03:40:12.487Z,80.48
2023-03-12T03:42:58.694Z,80.40
2023-03-12T03:45:37.138Z,80.44
2023-03-12T03:48:24.792Z,80.27
2023-03-12T03:51:06.057Z,80.30
2023-03-12T03:53:53.665Z,80.42
2023-03-12T03:56:41.421Z,80.21
2023-03-12T03:59:28.958Z,80.39
2023-03-12T04:02:16.488Z,80.24
2023-03-12T04:05:04.321Z,80.23
2023-03-12T04:07:32.260Z,80.46
2023-03-12T04:09:59.645Z,80.23
2023-03-12T04:12:47.258Z,80.42
2023-03-12T04:15:34.614Z,80.27
2023-03-12T04:18:22.555Z,80.50
2023-03-12T04:21:12.455Z,80.54
2023-03-12T04:23:49.991Z,80.29
2023-03-12T04:26:37.291Z,80.45
2023-03-12T04:29:24.974Z,80.26
2023-03-12T04:31:55.687Z,80.45
2023-03-12T04:34:26.421Z,80.41
2023-03-12T04:37:15.066Z,80.44
2023-03-12T04:40:06.306Z,80.40
2023-03-12T04:42:53.720Z,80.33
2023-03-12T04:45:31.519Z,80.39
2023-03-12T04:48:18.870Z,80.25
2023-03-12T04:51:07.028Z,80.25
2023-03-12T04:53:54.404Z,80.23
2023-03-12T04:56:24.925Z,80.38
2023-03-12T04:58:55.061Z,80.41
2023-03-12T05:01:43.007Z,80.24
2023-03-12T05:04:25.562Z,80.23
2023-03-12T05:07:13.673Z,80.32
2023-03-12T05:09:53.832Z,80.37
2023-03-12T05:12:41.367Z,80.38
2023-03-12T05:15:12.407Z,80.37
2023-03-12T05:18:00.286Z,80.28
2023-03-12T05:20:47.872Z,80.25
2023-03-12T05:23:36.356Z,80.41
2023-03-12T05:26:03.738Z,80.42
2023-03-12T05:28:50.661Z,80.39
2023-03-12T05:31:38.056Z,80.24
2023-03-12T05:34:25.788Z,80.48
2023-03-12T05:37:13.254Z,80.45
2023-03-12T05:40:00.992Z,80.51
2023-03-12T05:42:47.396Z,80.55
2023-03-12T05:45:19.992Z,80.37
2023-03-12T05:48:07.745Z,80.37
2023-03-12T05:50:53.139Z,80.48
2023-03-12T05:53:40.634Z,80.35
2023-03-12T05:56:20.865Z,80.35
2023-03-12T05:58:50.880Z,80.23
2023-03-12T06:01:29.658Z,80.17
2023-03-12T06:03:59.333Z,80.29
2023-03-12T06:06:27.375Z,80.17
2023-03-12T06:08:57.144Z,79.99
2023-03-12T06:11:44.546Z,80.08
2023-03-12T06:14:32.046Z,80.13
2023-03-12T06:17:07.286Z,80.11
2023-03-12T06:19:55.209Z,80.02
2023-03-12T06:22:42.731Z,79.98
2023-03-12T06:25:30.135Z,79.90
2023-03-12T06:28:19.075Z,79.71
2023-03-12T06:31:08.081Z,79.31
2023-03-12T06:33:38.702Z,79.09
2023-03-12T06:36:10.746Z,78.61
2023-03-12T06:38:43.533Z,77.97
2023-03-12T06:41:15.860Z,77.48
2023-03-12T06:44:06.275Z,77.27
2023-03-12T06:46:53.974Z,77.44
2023-03-12T06:49:41.773Z,77.39
2023-03-12T06:52:29.665Z,77.56
2023-03-12T06:55:17.091Z,77.66
2023-03-12T06:58:04.431Z,77.76
2023-03-12T07:00:51.884Z,77.60
2023-03-12T07:03:39.415Z,77.65
2023-03-12T07:06:27.095Z,77.73
2023-03-12T07:09:01.976Z,77.79
2023-03-12T07:11:39.431Z,77.70
2023-03-12T07:14:14.353Z,78.44
2023-03-12T07:17:02.550Z,76.44
2023-03-12T07:19:49.956Z,74.71
2023-03-12T07:22:37.426Z,74.28
2023-03-12T07:25:19.198Z,74.29
2023-03-12T07:28:07.950Z,74.36
2023-03-12T07:30:38.008Z,73.52
2023-03-12T07:33:06.500Z,70.30
2023-03-12T07:35:34.133Z,66.49
2023-03-12T07:38:04.667Z,63.12
2023-03-12T07:40:32.748Z,60.67
2023-03-12T07:43:00.534Z,58.09
2023-03-12T07:45:32.343Z,58.15
2023-03-12T07:47:59.817Z,55.89
2023-03-12T07:50:29.606Z,53.96
2023-03-12T07:52:57.153Z,55.66
2023-03-12T07:55:24.646Z,54.63
2023-03-12T07:57:52.207Z,52.12
2023-03-12T08:00:20.487Z,52.74
2023-03-12T08:02:48.000Z,53.75
2023-03-12T08:05:15.422Z,50.53
2023-03-12T08:07:42.655Z,50.91
2023-03-12T08:10:28.644Z,51.24
2023-03-12T08:12:59.049Z,51.16
2023-03-12T08:15:26.609Z,52.20
2023-03-12T08:17:56.906Z,50.61
2023-03-12T08:20:34.316Z,49.87
2023-03-12T08:23:04.550Z,50.69
2023-03-12T08:25:42.171Z,49.54
2023-03-12T08:28:11.847Z,49.38
2023-03-12T08:30:39.345Z,49.19
2023-03-12T08:33:16.692Z,49.80
2023-03-12T08:35:47.254Z,50.42
2023-03-12T08:38:18.001Z,51.73
2023-03-12T08:40:45.757Z,51.27
2023-03-12T08:43:12.957Z,50.11
2023-03-12T08:45:40.615Z,50.13
2023-03-12T08:48:29.031Z,50.22
2023-03-12T08:51:06.191Z,51.58
2023-03-12T08:53:41.797Z,52.29
2023-03-12T08:56:10.339Z,51.85
2023-03-12T08:58:37.456Z,50.01
2023-03-12T09:01:09.213Z,48.98
2023-03-12T09:03:47.695Z,46.85
2023-03-12T09:06:17.052Z,46.56
2023-03-12T09:08:44.849Z,46.76
2023-03-12T09:11:13.773Z,45.87
2023-03-12T09:14:03.948Z,45.42
2023-03-12T09:16:29.671Z,44.45
2023-03-12T09:18:57.292Z,44.04
2023-03-12T09:21:24.568Z,43.80
2023-03-12T09:23:52.135Z,44.76
2023-03-12T09:26:19.557Z,45.76
2023-03-12T09:28:46.782Z,47.08
2023-03-12T09:31:19.880Z,46.94
2023-03-12T09:33:47.376Z,46.92
2023-03-12T09:36:33.253Z,47.29
2023-03-12T09:39:01.067Z,47.67
2023-03-12T09:41:31.231Z,47.73
2023-03-12T09:44:03.708Z,47.38
2023-03-12T09:46:38.397Z,47.12
2023-03-12T09:49:13.103Z,47.28
2023-03-12T09:51:45.270Z,46.74
2023-03-12T09:54:26.309Z,45.98
2023-03-12T09:57:12.400Z,46.66
2023-03-12T09:59:48.912Z,46.87
2023-03-12T10:03:07.050Z,46.57
2023-03-12T10:05:44.348Z,45.88
2023-03-12T10:08:29.830Z,46.63
2023-03-12T10:11:29.836Z,47.51
2023-03-12T10:14:18.035Z,47.65
2023-03-12T10:17:00.675Z,48.58
2023-03-12T10:19:50.189Z,49.37
2023-03-12T10:22:32.630Z,49.86
2023-03-12T10:25:17.774Z,50.29
2023-03-12T10:27:48.864Z,50.86
2023-03-12T10:30:23.493Z,50.95
2023-03-12T10:33:04.393Z,51.67
2023-03-12T10:35:54.034Z,51.91
2023-03-12T10:38:40.645Z,52.23
2023-03-12T10:41:24.400Z,51.93
2023-03-12T10:44:07.400Z,50.37
2023-03-12T10:46:47.898Z,50.62
2023-03-12T10:49:38.167Z,50.50
2023-03-12T10:52:25.961Z,50.87
2023-03-12T10:54:56.862Z,51.24
2023-03-12T10:57:44.871Z,51.65
2023-03-12T11:00:34.088Z,51.62
2023-03-12T11:03:24.634Z,51.91
2023-03-12T11:06:04.712Z,51.30
2023-03-12T11:08:43.577Z,50.39
2023-03-12T11:11:36.694Z,49.79
2023-03-12T11:14:25.878Z,47.99
2023-03-12T11:17:24.670Z,49.72
2023-03-12T11:20:01.106Z,47.94
2023-03-12T11:22:35.026Z,47.96
2023-03-12T11:25:04.352Z,49.15
2023-03-12T11:27:54.862Z,48.05
2023-03-12T11:30:30.925Z,46.75
2023-03-12T11:33:02.466Z,45.69
2023-03-12T11:35:42.578Z,45.38
2023-03-12T11:38:18.446Z,46.63
2023-03-12T11:41:10.999Z,44.87
2023-03-12T11:43:53.940Z,45.31
2023-03-12T11:46:37.544Z,44.64
2023-03-12T11:49:19.376Z,44.42
2023-03-12T11:51:56.091Z,44.95
2023-03-12T11:54:32.363Z,44.22
2023-03-12T11:57:03.967Z,44.82
2023-03-12T11:59:55.435Z,44.75
2023-03-12T12:02:41.890Z,44.51
2023-03-12T12:05:41.306Z,45.26
2023-03-12T12:08:33.390Z,44.70
2023-03-12T12:11:16.639Z,44.72
2023-03-12T12:14:13.683Z,44.84
2023-03-12T12:17:03.284Z,45.16
2023-03-12T12:20:10.298Z,44.22
2023-03-12T12:23:10.671Z,44.81
2023-03-12T12:26:18.567Z,45.32
2023-03-12T12:29:26.930Z,45.80
2023-03-12T12:31:59.626Z,45.83
2023-03-12T12:34:54.835Z,45.94
2023-03-12T12:37:38.255Z,46.48
2023-03-12T12:40:23.787Z,46.16
2023-03-12T12:43:38.133Z,45.23
2023-03-12T12:46:09.295Z,45.30
2023-03-12T12:48:41.291Z,45.16
2023-03-12T12:51:21.003Z,45.04
2023-03-12T12:53:55.678Z,44.47
2023-03-12T12:56:32.457Z,45.21
2023-03-12T12:59:23.362Z,45.26
2023-03-12T13:01:53.156Z,45.03
2023-03-12T13:04:42.678Z,44.86
2023-03-12T13:07:35.204Z,44.79
2023-03-12T13:10:53.321Z,44.97
2023-03-12T13:13:27.499Z,44.53
2023-03-12T13:16:34.992Z,45.44
2023-03-12T13:19:06.907Z,45.58
2023-03-12T13:21:41.635Z,45.49
2023-03-12T13:24:20.604Z,45.22
2023-03-12T13:27:06.110Z,44.75
2023-03-12T13:29:41.859Z,44.41
2023-03-12T13:32:32.502Z,44.95
2023-03-12T13:35:00.851Z,44.76
2023-03-12T13:37:59.383Z,44.84
2023-03-12T13:41:01.110Z,44.29
2023-03-12T13:43:52.081Z,43.62
2023-03-12T13:46:43.418Z,43.74
2023-03-12T13:49:23.353Z,44.10
2023-03-12T13:52:00.712Z,44.14
2023-03-12T13:54:35.277Z,43.53
2023-03-12T13:57:12.367Z,43.53
2023-03-12T13:59:49.326Z,43.50
